sensor_id;sensor_type;location;lat;lon;timestamp;P1;durP1;ratioP1;P2;durP2;ratioP2
71969;SDS011;59838;52.152;5.436;2023-07-31T00:01:49;3.53;;;0.30;;
71969;SDS011;59838;52.152;5.436;2023-07-31T00:04:16;1.80;;;0.30;;
71969;SDS011;59838;52.152;5.436;2023-07-31T00:06:45;2.85;;;0.20;;
71969;SDS011;59838;52.152;5.436;2023-07-31T00:09:12;0.75;;;0.30;;
71969;SDS011;59838;52.152;5.436;2023-07-31T00:11:38;2.67;;;0.50;;
71969;SDS011;59838;52.152;5.436;2023-07-31T00:14:05;2.38;;;0.47;;
71969;SDS011;59838;52.152;5.436;2023-07-31T00:16:31;9.53;;;0.40;;
71969;SDS011;59838;52.152;5.436;2023-07-31T00:18:58;1.45;;;0.30;;
71969;SDS011;59838;52.152;5.436;2023-07-31T00:21:24;1.13;;;0.32;;
71969;SDS011;59838;52.152;5.436;2023-07-31T00:23:51;2.25;;;0.30;;
71969;SDS011;59838;52.152;5.436;2023-07-31T00:26:17;2.00;;;0.38;;
71969;SDS011;59838;52.152;5.436;2023-07-31T00:28:44;1.37;;;0.30;;
71969;SDS011;59838;52.152;5.436;2023-07-31T00:31:10;0.90;;;0.30;;
71969;SDS011;59838;52.152;5.436;2023-07-31T00:33:37;0.65;;;0.20;;
71969;SDS011;59838;52.152;5.436;2023-07-31T00:36:11;2.03;;;0.40;;
71969;SDS011;59838;52.152;5.436;2023-07-31T00:39:17;1.10;;;0.30;;
71969;SDS011;59838;52.152;5.436;2023-07-31T00:41:48;1.77;;;0.50;;
71969;SDS011;59838;52.152;5.436;2023-07-31T00:44:15;4.47;;;0.50;;
71969;SDS011;59838;52.152;5.436;2023-07-31T00:46:42;4.43;;;1.67;;
71969;SDS011;59838;52.152;5.436;2023-07-31T00:49:10;5.00;;;1.27;;
71969;SDS011;59838;52.152;5.436;2023-07-31T00:51:38;4.10;;;0.80;;
71969;SDS011;59838;52.152;5.436;2023-07-31T00:54:04;6.33;;;1.37;;
71969;SDS011;59838;52.152;5.436;2023-07-31T00:56:32;5.05;;;1.15;;
71969;SDS011;59838;52.152;5.436;2023-07-31T00:58:59;7.68;;;1.77;;
71969;SDS011;59838;52.152;5.436;2023-07-31T01:01:26;16.77;;;2.17;;
71969;SDS011;59838;52.152;5.436;2023-07-31T01:03:53;7.68;;;2.28;;
71969;SDS011;59838;52.152;5.436;2023-07-31T01:06:30;13.67;;;3.50;;
71969;SDS011;59838;52.152;5.436;2023-07-31T01:09:20;15.07;;;3.63;;
71969;SDS011;59838;52.152;5.436;2023-07-31T01:11:56;18.50;;;2.45;;
71969;SDS011;59838;52.152;5.436;2023-07-31T01:14:26;16.95;;;2.85;;
71969;SDS011;59838;52.152;5.436;2023-07-31T01:16:52;11.75;;;2.63;;
71969;SDS011;59838;52.152;5.436;2023-07-31T01:19:21;20.37;;;3.17;;
71969;SDS011;59838;52.152;5.436;2023-07-31T01:22:03;15.45;;;2.50;;
71969;SDS011;59838;52.152;5.436;2023-07-31T01:27:34;6.25;;;1.50;;
71969;SDS011;59838;52.152;5.436;2023-07-31T01:30:16;4.50;;;1.83;;
71969;SDS011;59838;52.152;5.436;2023-07-31T01:32:49;3.53;;;1.27;;
71969;SDS011;59838;52.152;5.436;2023-07-31T01:35:17;3.70;;;0.98;;
71969;SDS011;59838;52.152;5.436;2023-07-31T01:37:45;4.93;;;0.95;;
71969;SDS011;59838;52.152;5.436;2023-07-31T01:40:12;6.75;;;1.50;;
71969;SDS011;59838;52.152;5.436;2023-07-31T01:42:38;5.28;;;0.85;;
71969;SDS011;59838;52.152;5.436;2023-07-31T01:45:06;4.10;;;0.80;;
71969;SDS011;59838;52.152;5.436;2023-07-31T01:47:33;3.00;;;1.17;;
71969;SDS011;59838;52.152;5.436;2023-07-31T01:50:00;2.42;;;0.70;;
71969;SDS011;59838;52.152;5.436;2023-07-31T01:52:26;2.13;;;0.52;;
71969;SDS011;59838;52.152;5.436;2023-07-31T01:54:53;4.57;;;0.70;;
71969;SDS011;59838;52.152;5.436;2023-07-31T01:57:20;6.43;;;1.70;;
71969;SDS011;59838;52.152;5.436;2023-07-31T01:59:49;9.95;;;2.75;;
71969;SDS011;59838;52.152;5.436;2023-07-31T02:02:16;14.27;;;2.35;;
71969;SDS011;59838;52.152;5.436;2023-07-31T02:04:43;10.93;;;3.00;;
71969;SDS011;59838;52.152;5.436;2023-07-31T02:07:09;16.25;;;2.72;;
71969;SDS011;59838;52.152;5.436;2023-07-31T02:09:36;13.60;;;3.17;;
71969;SDS011;59838;52.152;5.436;2023-07-31T02:12:02;13.32;;;3.15;;
71969;SDS011;59838;52.152;5.436;2023-07-31T02:14:30;16.38;;;2.92;;
71969;SDS011;59838;52.152;5.436;2023-07-31T02:16:57;12.60;;;3.50;;
71969;SDS011;59838;52.152;5.436;2023-07-31T02:19:23;10.23;;;2.83;;
71969;SDS011;59838;52.152;5.436;2023-07-31T02:21:50;12.73;;;3.17;;
71969;SDS011;59838;52.152;5.436;2023-07-31T02:24:16;10.68;;;2.88;;
71969;SDS011;59838;52.152;5.436;2023-07-31T02:26:43;14.00;;;2.22;;
71969;SDS011;59838;52.152;5.436;2023-07-31T02:29:10;10.57;;;3.03;;
71969;SDS011;59838;52.152;5.436;2023-07-31T02:31:36;9.90;;;2.80;;
71969;SDS011;59838;52.152;5.436;2023-07-31T02:34:03;10.87;;;3.00;;
71969;SDS011;59838;52.152;5.436;2023-07-31T02:36:29;11.98;;;2.33;;
71969;SDS011;59838;52.152;5.436;2023-07-31T02:38:57;13.23;;;2.85;;
71969;SDS011;59838;52.152;5.436;2023-07-31T02:41:28;12.23;;;2.53;;
71969;SDS011;59838;52.152;5.436;2023-07-31T02:43:57;12.65;;;2.58;;
71969;SDS011;59838;52.152;5.436;2023-07-31T02:46:35;21.70;;;3.15;;
71969;SDS011;59838;52.152;5.436;2023-07-31T02:49:03;17.67;;;3.30;;
71969;SDS011;59838;52.152;5.436;2023-07-31T02:51:30;13.57;;;2.90;;
71969;SDS011;59838;52.152;5.436;2023-07-31T02:53:57;11.32;;;2.58;;
71969;SDS011;59838;52.152;5.436;2023-07-31T02:56:23;11.38;;;2.45;;
71969;SDS011;59838;52.152;5.436;2023-07-31T02:58:52;12.63;;;2.20;;
71969;SDS011;59838;52.152;5.436;2023-07-31T03:01:19;17.73;;;3.10;;
71969;SDS011;59838;52.152;5.436;2023-07-31T03:03:50;19.95;;;3.42;;
71969;SDS011;59838;52.152;5.436;2023-07-31T03:06:17;12.20;;;2.83;;
71969;SDS011;59838;52.152;5.436;2023-07-31T03:08:44;10.15;;;3.13;;
71969;SDS011;59838;52.152;5.436;2023-07-31T03:11:10;13.67;;;2.97;;
71969;SDS011;59838;52.152;5.436;2023-07-31T03:13:37;18.58;;;3.97;;
71969;SDS011;59838;52.152;5.436;2023-07-31T03:16:04;15.50;;;3.50;;
71969;SDS011;59838;52.152;5.436;2023-07-31T03:18:32;19.65;;;4.45;;
71969;SDS011;59838;52.152;5.436;2023-07-31T03:20:59;19.17;;;3.65;;
71969;SDS011;59838;52.152;5.436;2023-07-31T03:23:25;20.20;;;3.87;;
71969;SDS011;59838;52.152;5.436;2023-07-31T03:25:55;14.00;;;3.60;;
71969;SDS011;59838;52.152;5.436;2023-07-31T03:28:28;16.02;;;3.95;;
71969;SDS011;59838;52.152;5.436;2023-07-31T03:31:01;15.48;;;4.43;;
71969;SDS011;59838;52.152;5.436;2023-07-31T03:33:28;13.90;;;4.18;;
71969;SDS011;59838;52.152;5.436;2023-07-31T03:35:54;12.00;;;3.27;;
71969;SDS011;59838;52.152;5.436;2023-07-31T03:38:21;23.05;;;4.60;;
71969;SDS011;59838;52.152;5.436;2023-07-31T03:40:50;14.93;;;4.20;;
71969;SDS011;59838;52.152;5.436;2023-07-31T03:43:16;19.55;;;4.35;;
71969;SDS011;59838;52.152;5.436;2023-07-31T03:45:43;16.33;;;3.80;;
71969;SDS011;59838;52.152;5.436;2023-07-31T03:48:10;15.40;;;4.17;;
71969;SDS011;59838;52.152;5.436;2023-07-31T03:50:36;14.35;;;3.33;;
71969;SDS011;59838;52.152;5.436;2023-07-31T03:53:03;23.52;;;4.30;;
71969;SDS011;59838;52.152;5.436;2023-07-31T03:55:36;9.70;;;3.45;;
71969;SDS011;59838;52.152;5.436;2023-07-31T03:58:08;20.48;;;4.22;;
71969;SDS011;59838;52.152;5.436;2023-07-31T04:00:34;16.53;;;3.40;;
71969;SDS011;59838;52.152;5.436;2023-07-31T04:03:01;20.88;;;4.40;;
71969;SDS011;59838;52.152;5.436;2023-07-31T04:05:30;14.63;;;4.75;;
71969;SDS011;59838;52.152;5.436;2023-07-31T04:08:01;15.73;;;3.67;;
71969;SDS011;59838;52.152;5.436;2023-07-31T04:10:28;15.30;;;3.50;;
71969;SDS011;59838;52.152;5.436;2023-07-31T04:12:55;14.30;;;4.07;;
71969;SDS011;59838;52.152;5.436;2023-07-31T04:15:22;14.23;;;3.53;;
71969;SDS011;59838;52.152;5.436;2023-07-31T04:17:49;17.42;;;3.80;;
71969;SDS011;59838;52.152;5.436;2023-07-31T04:20:17;14.75;;;3.40;;
71969;SDS011;59838;52.152;5.436;2023-07-31T04:22:43;17.35;;;3.95;;
71969;SDS011;59838;52.152;5.436;2023-07-31T04:25:10;14.33;;;3.67;;
71969;SDS011;59838;52.152;5.436;2023-07-31T04:27:36;15.38;;;3.65;;
71969;SDS011;59838;52.152;5.436;2023-07-31T04:30:04;14.75;;;3.88;;
71969;SDS011;59838;52.152;5.436;2023-07-31T04:32:31;15.57;;;3.38;;
71969;SDS011;59838;52.152;5.436;2023-07-31T04:34:58;18.92;;;4.90;;
71969;SDS011;59838;52.152;5.436;2023-07-31T04:37:27;15.47;;;3.77;;
71969;SDS011;59838;52.152;5.436;2023-07-31T04:39:54;16.80;;;3.55;;
71969;SDS011;59838;52.152;5.436;2023-07-31T04:42:27;13.73;;;4.05;;
71969;SDS011;59838;52.152;5.436;2023-07-31T04:44:54;11.60;;;3.55;;
71969;SDS011;59838;52.152;5.436;2023-07-31T04:47:21;12.93;;;3.65;;
71969;SDS011;59838;52.152;5.436;2023-07-31T04:52:39;13.10;;;3.00;;
71969;SDS011;59838;52.152;5.436;2023-07-31T04:55:05;16.83;;;3.13;;
71969;SDS011;59838;52.152;5.436;2023-07-31T04:57:32;6.35;;;2.75;;
71969;SDS011;59838;52.152;5.436;2023-07-31T04:59:58;14.00;;;3.92;;
71969;SDS011;59838;52.152;5.436;2023-07-31T05:02:25;13.00;;;3.17;;
71969;SDS011;59838;52.152;5.436;2023-07-31T05:04:52;13.40;;;4.07;;
71969;SDS011;59838;52.152;5.436;2023-07-31T05:07:18;10.13;;;3.67;;
71969;SDS011;59838;52.152;5.436;2023-07-31T05:09:47;15.13;;;3.75;;
71969;SDS011;59838;52.152;5.436;2023-07-31T05:12:14;12.60;;;3.03;;
71969;SDS011;59838;52.152;5.436;2023-07-31T05:14:40;12.07;;;2.73;;
71969;SDS011;59838;52.152;5.436;2023-07-31T05:17:07;12.23;;;3.20;;
71969;SDS011;59838;52.152;5.436;2023-07-31T05:19:33;13.10;;;3.30;;
71969;SDS011;59838;52.152;5.436;2023-07-31T05:22:00;11.05;;;2.70;;
71969;SDS011;59838;52.152;5.436;2023-07-31T05:24:27;9.95;;;2.70;;
71969;SDS011;59838;52.152;5.436;2023-07-31T05:26:53;6.40;;;3.03;;
71969;SDS011;59838;52.152;5.436;2023-07-31T05:29:23;9.18;;;3.40;;
71969;SDS011;59838;52.152;5.436;2023-07-31T05:31:49;14.07;;;3.22;;
71969;SDS011;59838;52.152;5.436;2023-07-31T05:34:16;14.52;;;3.20;;
71969;SDS011;59838;52.152;5.436;2023-07-31T05:36:42;11.27;;;3.15;;
71969;SDS011;59838;52.152;5.436;2023-07-31T05:39:09;9.17;;;2.60;;
71969;SDS011;59838;52.152;5.436;2023-07-31T05:41:36;7.57;;;2.47;;
71969;SDS011;59838;52.152;5.436;2023-07-31T05:44:02;5.97;;;2.10;;
71969;SDS011;59838;52.152;5.436;2023-07-31T05:46:29;7.35;;;1.73;;
71969;SDS011;59838;52.152;5.436;2023-07-31T05:48:57;5.28;;;1.65;;
71969;SDS011;59838;52.152;5.436;2023-07-31T05:51:27;7.93;;;1.50;;
71969;SDS011;59838;52.152;5.436;2023-07-31T05:53:54;3.72;;;1.50;;
71969;SDS011;59838;52.152;5.436;2023-07-31T05:56:21;3.78;;;1.20;;
71969;SDS011;59838;52.152;5.436;2023-07-31T05:58:47;7.35;;;1.45;;
71969;SDS011;59838;52.152;5.436;2023-07-31T06:01:15;4.93;;;1.90;;
71969;SDS011;59838;52.152;5.436;2023-07-31T06:03:44;6.43;;;1.87;;
71969;SDS011;59838;52.152;5.436;2023-07-31T06:06:12;5.63;;;1.70;;
71969;SDS011;59838;52.152;5.436;2023-07-31T06:08:40;3.80;;;1.63;;
71969;SDS011;59838;52.152;5.436;2023-07-31T06:11:07;4.28;;;1.90;;
71969;SDS011;59838;52.152;5.436;2023-07-31T06:13:36;10.05;;;2.20;;
71969;SDS011;59838;52.152;5.436;2023-07-31T06:16:02;7.43;;;1.90;;
71969;SDS011;59838;52.152;5.436;2023-07-31T06:18:33;4.65;;;2.17;;
71969;SDS011;59838;52.152;5.436;2023-07-31T06:21:00;13.52;;;2.28;;
71969;SDS011;59838;52.152;5.436;2023-07-31T06:23:29;6.55;;;2.03;;
71969;SDS011;59838;52.152;5.436;2023-07-31T06:25:56;4.65;;;2.40;;
71969;SDS011;59838;52.152;5.436;2023-07-31T06:28:32;3.57;;;1.90;;
71969;SDS011;59838;52.152;5.436;2023-07-31T06:30:59;4.80;;;1.77;;
71969;SDS011;59838;52.152;5.436;2023-07-31T06:33:26;3.03;;;1.50;;
71969;SDS011;59838;52.152;5.436;2023-07-31T06:35:55;5.47;;;1.98;;
71969;SDS011;59838;52.152;5.436;2023-07-31T06:38:37;3.95;;;1.73;;
71969;SDS011;59838;52.152;5.436;2023-07-31T06:41:07;3.53;;;1.70;;
71969;SDS011;59838;52.152;5.436;2023-07-31T06:43:53;6.22;;;1.80;;
71969;SDS011;59838;52.152;5.436;2023-07-31T06:46:29;4.32;;;1.20;;
71969;SDS011;59838;52.152;5.436;2023-07-31T06:48:59;2.80;;;1.63;;
71969;SDS011;59838;52.152;5.436;2023-07-31T06:51:38;2.60;;;1.20;;
71969;SDS011;59838;52.152;5.436;2023-07-31T06:54:04;5.80;;;1.30;;
71969;SDS011;59838;52.152;5.436;2023-07-31T06:56:31;4.50;;;1.30;;
71969;SDS011;59838;52.152;5.436;2023-07-31T06:58:58;4.28;;;1.20;;
71969;SDS011;59838;52.152;5.436;2023-07-31T07:01:24;3.90;;;1.20;;
71969;SDS011;59838;52.152;5.436;2023-07-31T07:03:55;3.28;;;1.38;;
71969;SDS011;59838;52.152;5.436;2023-07-31T07:06:22;3.50;;;1.10;;
71969;SDS011;59838;52.152;5.436;2023-07-31T07:08:49;3.17;;;0.93;;
71969;SDS011;59838;52.152;5.436;2023-07-31T07:11:15;2.92;;;1.30;;
71969;SDS011;59838;52.152;5.436;2023-07-31T07:13:45;3.85;;;1.65;;
71969;SDS011;59838;52.152;5.436;2023-07-31T07:16:13;5.13;;;1.35;;
71969;SDS011;59838;52.152;5.436;2023-07-31T07:18:40;5.03;;;1.60;;
71969;SDS011;59838;52.152;5.436;2023-07-31T07:21:24;2.85;;;1.23;;
71969;SDS011;59838;52.152;5.436;2023-07-31T07:23:51;2.72;;;1.42;;
71969;SDS011;59838;52.152;5.436;2023-07-31T07:26:18;4.50;;;1.25;;
71969;SDS011;59838;52.152;5.436;2023-07-31T07:28:45;3.00;;;1.20;;
71969;SDS011;59838;52.152;5.436;2023-07-31T07:31:12;2.13;;;1.10;;
71969;SDS011;59838;52.152;5.436;2023-07-31T07:33:39;2.60;;;1.20;;
71969;SDS011;59838;52.152;5.436;2023-07-31T07:36:08;2.28;;;0.88;;
71969;SDS011;59838;52.152;5.436;2023-07-31T07:38:36;4.18;;;1.33;;
71969;SDS011;59838;52.152;5.436;2023-07-31T07:41:05;2.75;;;1.30;;
71969;SDS011;59838;52.152;5.436;2023-07-31T07:43:32;5.53;;;0.83;;
71969;SDS011;59838;52.152;5.436;2023-07-31T07:45:58;2.47;;;1.00;;
71969;SDS011;59838;52.152;5.436;2023-07-31T07:48:28;2.78;;;1.20;;
71969;SDS011;59838;52.152;5.436;2023-07-31T07:50:55;3.25;;;0.80;;
71969;SDS011;59838;52.152;5.436;2023-07-31T07:53:22;1.73;;;0.82;;
71969;SDS011;59838;52.152;5.436;2023-07-31T07:55:48;4.80;;;1.10;;
71969;SDS011;59838;52.152;5.436;2023-07-31T07:58:15;4.25;;;1.08;;
71969;SDS011;59838;52.152;5.436;2023-07-31T08:00:41;2.03;;;0.90;;
71969;SDS011;59838;52.152;5.436;2023-07-31T08:03:14;1.85;;;0.93;;
71969;SDS011;59838;52.152;5.436;2023-07-31T08:05:41;1.85;;;0.98;;
71969;SDS011;59838;52.152;5.436;2023-07-31T08:08:08;1.73;;;0.80;;
71969;SDS011;59838;52.152;5.436;2023-07-31T08:10:34;2.28;;;0.93;;
71969;SDS011;59838;52.152;5.436;2023-07-31T08:13:01;2.35;;;0.85;;
71969;SDS011;59838;52.152;5.436;2023-07-31T08:15:27;1.20;;;0.50;;
71969;SDS011;59838;52.152;5.436;2023-07-31T08:17:54;2.65;;;0.73;;
71969;SDS011;59838;52.152;5.436;2023-07-31T08:20:21;1.33;;;0.80;;
71969;SDS011;59838;52.152;5.436;2023-07-31T08:22:47;2.33;;;0.95;;
71969;SDS011;59838;52.152;5.436;2023-07-31T08:25:15;2.03;;;0.60;;
71969;SDS011;59838;52.152;5.436;2023-07-31T08:27:45;2.40;;;0.45;;
71969;SDS011;59838;52.152;5.436;2023-07-31T08:30:11;1.15;;;0.50;;
71969;SDS011;59838;52.152;5.436;2023-07-31T08:32:38;2.13;;;0.73;;
71969;SDS011;59838;52.152;5.436;2023-07-31T08:35:05;0.82;;;0.50;;
71969;SDS011;59838;52.152;5.436;2023-07-31T08:37:49;3.60;;;0.47;;
71969;SDS011;59838;52.152;5.436;2023-07-31T08:40:16;1.33;;;0.40;;
71969;SDS011;59838;52.152;5.436;2023-07-31T08:42:43;2.03;;;0.30;;
71969;SDS011;59838;52.152;5.436;2023-07-31T08:45:15;1.40;;;0.33;;
71969;SDS011;59838;52.152;5.436;2023-07-31T08:47:47;1.15;;;0.30;;
71969;SDS011;59838;52.152;5.436;2023-07-31T08:50:16;1.10;;;0.40;;
71969;SDS011;59838;52.152;5.436;2023-07-31T08:52:49;2.65;;;0.80;;
71969;SDS011;59838;52.152;5.436;2023-07-31T08:55:19;1.25;;;0.57;;
71969;SDS011;59838;52.152;5.436;2023-07-31T08:57:51;1.23;;;0.30;;
71969;SDS011;59838;52.152;5.436;2023-07-31T09:00:20;4.07;;;0.60;;
71969;SDS011;59838;52.152;5.436;2023-07-31T09:03:03;2.08;;;0.30;;
71969;SDS011;59838;52.152;5.436;2023-07-31T09:05:43;1.20;;;0.40;;
71969;SDS011;59838;52.152;5.436;2023-07-31T09:08:23;1.20;;;0.77;;
71969;SDS011;59838;52.152;5.436;2023-07-31T09:11:07;1.67;;;0.50;;
71969;SDS011;59838;52.152;5.436;2023-07-31T09:16:28;0.95;;;0.55;;
71969;SDS011;59838;52.152;5.436;2023-07-31T09:18:58;1.17;;;0.30;;
71969;SDS011;59838;52.152;5.436;2023-07-31T09:21:28;1.20;;;0.40;;
71969;SDS011;59838;52.152;5.436;2023-07-31T09:23:55;1.00;;;0.30;;
71969;SDS011;59838;52.152;5.436;2023-07-31T09:26:56;1.30;;;0.28;;
71969;SDS011;59838;52.152;5.436;2023-07-31T09:29:19;1.52;;;0.60;;
71969;SDS011;59838;52.152;5.436;2023-07-31T09:31:46;1.13;;;0.30;;
71969;SDS011;59838;52.152;5.436;2023-07-31T09:34:28;1.10;;;0.40;;
71969;SDS011;59838;52.152;5.436;2023-07-31T09:37:01;1.20;;;0.50;;
71969;SDS011;59838;52.152;5.436;2023-07-31T09:39:27;1.00;;;0.35;;
71969;SDS011;59838;52.152;5.436;2023-07-31T09:41:58;0.90;;;0.50;;
71969;SDS011;59838;52.152;5.436;2023-07-31T09:44:38;1.48;;;0.73;;
71969;SDS011;59838;52.152;5.436;2023-07-31T09:47:29;2.08;;;0.63;;
71969;SDS011;59838;52.152;5.436;2023-07-31T09:49:57;1.30;;;0.80;;
71969;SDS011;59838;52.152;5.436;2023-07-31T09:52:32;1.20;;;0.50;;
71969;SDS011;59838;52.152;5.436;2023-07-31T09:54:59;1.05;;;0.47;;
71969;SDS011;59838;52.152;5.436;2023-07-31T09:57:27;1.00;;;0.57;;
71969;SDS011;59838;52.152;5.436;2023-07-31T09:59:56;1.35;;;0.70;;
71969;SDS011;59838;52.152;5.436;2023-07-31T10:02:27;2.40;;;0.60;;
71969;SDS011;59838;52.152;5.436;2023-07-31T10:04:56;1.48;;;0.70;;
71969;SDS011;59838;52.152;5.436;2023-07-31T10:07:26;1.05;;;0.52;;
71969;SDS011;59838;52.152;5.436;2023-07-31T10:10:00;1.75;;;0.60;;
71969;SDS011;59838;52.152;5.436;2023-07-31T10:12:30;1.27;;;0.55;;
71969;SDS011;59838;52.152;5.436;2023-07-31T10:14:58;1.83;;;0.60;;
71969;SDS011;59838;52.152;5.436;2023-07-31T10:17:32;0.80;;;0.50;;
71969;SDS011;59838;52.152;5.436;2023-07-31T10:20:02;1.75;;;0.63;;
71969;SDS011;59838;52.152;5.436;2023-07-31T10:22:31;1.23;;;0.60;;
71969;SDS011;59838;52.152;5.436;2023-07-31T10:25:01;2.63;;;1.05;;
71969;SDS011;59838;52.152;5.436;2023-07-31T10:27:38;4.57;;;1.00;;
71969;SDS011;59838;52.152;5.436;2023-07-31T10:30:07;1.50;;;1.00;;
71969;SDS011;59838;52.152;5.436;2023-07-31T10:32:46;3.58;;;1.20;;
71969;SDS011;59838;52.152;5.436;2023-07-31T10:35:26;1.70;;;1.10;;
71969;SDS011;59838;52.152;5.436;2023-07-31T10:38:09;3.08;;;1.73;;
71969;SDS011;59838;52.152;5.436;2023-07-31T10:40:38;1.50;;;1.10;;
71969;SDS011;59838;52.152;5.436;2023-07-31T10:43:05;2.20;;;1.52;;
71969;SDS011;59838;52.152;5.436;2023-07-31T10:48:16;2.63;;;1.60;;
71969;SDS011;59838;52.152;5.436;2023-07-31T10:50:54;3.83;;;1.58;;
71969;SDS011;59838;52.152;5.436;2023-07-31T10:53:30;3.17;;;1.93;;
71969;SDS011;59838;52.152;5.436;2023-07-31T10:56:06;3.70;;;1.60;;
71969;SDS011;59838;52.152;5.436;2023-07-31T10:58:43;3.70;;;1.65;;
71969;SDS011;59838;52.152;5.436;2023-07-31T11:01:49;5.03;;;1.67;;
71969;SDS011;59838;52.152;5.436;2023-07-31T11:04:29;5.22;;;1.90;;
71969;SDS011;59838;52.152;5.436;2023-07-31T11:06:58;3.37;;;1.20;;
71969;SDS011;59838;52.152;5.436;2023-07-31T11:09:29;2.47;;;1.65;;
71969;SDS011;59838;52.152;5.436;2023-07-31T11:11:59;2.40;;;1.30;;
71969;SDS011;59838;52.152;5.436;2023-07-31T11:14:26;3.15;;;1.33;;
71969;SDS011;59838;52.152;5.436;2023-07-31T11:16:56;1.98;;;1.08;;
71969;SDS011;59838;52.152;5.436;2023-07-31T11:22:25;1.50;;;1.00;;
71969;SDS011;59838;52.152;5.436;2023-07-31T11:24:52;1.50;;;0.88;;
71969;SDS011;59838;52.152;5.436;2023-07-31T11:27:19;1.25;;;0.63;;
71969;SDS011;59838;52.152;5.436;2023-07-31T11:29:45;1.35;;;0.80;;
71969;SDS011;59838;52.152;5.436;2023-07-31T11:32:16;1.20;;;0.50;;
71969;SDS011;59838;52.152;5.436;2023-07-31T11:37:50;2.55;;;0.50;;
71969;SDS011;59838;52.152;5.436;2023-07-31T11:40:17;0.90;;;0.50;;
71969;SDS011;59838;52.152;5.436;2023-07-31T11:42:48;2.30;;;0.80;;
71969;SDS011;59838;52.152;5.436;2023-07-31T11:48:35;0.90;;;0.57;;
71969;SDS011;59838;52.152;5.436;2023-07-31T11:51:05;2.38;;;0.50;;
71969;SDS011;59838;52.152;5.436;2023-07-31T11:53:50;2.13;;;0.80;;
71969;SDS011;59838;52.152;5.436;2023-07-31T11:56:19;4.28;;;0.90;;
71969;SDS011;59838;52.152;5.436;2023-07-31T11:58:58;2.78;;;1.30;;
71969;SDS011;59838;52.152;5.436;2023-07-31T12:01:29;2.10;;;1.13;;
71969;SDS011;59838;52.152;5.436;2023-07-31T12:03:57;4.40;;;1.00;;
71969;SDS011;59838;52.152;5.436;2023-07-31T12:06:34;2.00;;;0.82;;
71969;SDS011;59838;52.152;5.436;2023-07-31T12:09:05;2.03;;;1.25;;
71969;SDS011;59838;52.152;5.436;2023-07-31T12:11:45;2.90;;;1.30;;
71969;SDS011;59838;52.152;5.436;2023-07-31T12:14:26;3.17;;;1.20;;
71969;SDS011;59838;52.152;5.436;2023-07-31T12:17:04;2.78;;;1.25;;
71969;SDS011;59838;52.152;5.436;2023-07-31T12:19:33;2.15;;;1.33;;
71969;SDS011;59838;52.152;5.436;2023-07-31T12:22:10;2.03;;;1.23;;
71969;SDS011;59838;52.152;5.436;2023-07-31T12:24:43;2.20;;;1.27;;
71969;SDS011;59838;52.152;5.436;2023-07-31T12:27:11;1.65;;;1.20;;
71969;SDS011;59838;52.152;5.436;2023-07-31T12:29:41;2.78;;;1.10;;
71969;SDS011;59838;52.152;5.436;2023-07-31T12:32:24;1.73;;;1.13;;
71969;SDS011;59838;52.152;5.436;2023-07-31T12:34:59;2.72;;;1.20;;
71969;SDS011;59838;52.152;5.436;2023-07-31T12:37:29;4.57;;;1.20;;
71969;SDS011;59838;52.152;5.436;2023-07-31T12:39:55;1.67;;;1.02;;
71969;SDS011;59838;52.152;5.436;2023-07-31T12:42:27;1.30;;;0.98;;
71969;SDS011;59838;52.152;5.436;2023-07-31T12:47:42;1.75;;;1.00;;
71969;SDS011;59838;52.152;5.436;2023-07-31T12:50:17;3.63;;;1.00;;
71969;SDS011;59838;52.152;5.436;2023-07-31T12:52:45;1.60;;;1.02;;
71969;SDS011;59838;52.152;5.436;2023-07-31T12:55:12;1.30;;;0.90;;
71969;SDS011;59838;52.152;5.436;2023-07-31T12:57:39;1.58;;;1.02;;
71969;SDS011;59838;52.152;5.436;2023-07-31T13:00:07;2.38;;;1.40;;
71969;SDS011;59838;52.152;5.436;2023-07-31T13:02:35;1.88;;;1.20;;
71969;SDS011;59838;52.152;5.436;2023-07-31T13:05:02;2.80;;;1.10;;
71969;SDS011;59838;52.152;5.436;2023-07-31T13:07:29;2.90;;;1.20;;
71969;SDS011;59838;52.152;5.436;2023-07-31T13:09:58;2.22;;;0.90;;
71969;SDS011;59838;52.152;5.436;2023-07-31T13:12:43;3.63;;;1.52;;
71969;SDS011;59838;52.152;5.436;2023-07-31T13:15:10;1.60;;;1.27;;
71969;SDS011;59838;52.152;5.436;2023-07-31T13:17:37;2.75;;;1.42;;
71969;SDS011;59838;52.152;5.436;2023-07-31T13:20:04;2.15;;;1.02;;
71969;SDS011;59838;52.152;5.436;2023-07-31T13:22:32;1.75;;;1.35;;
71969;SDS011;59838;52.152;5.436;2023-07-31T13:24:59;3.15;;;1.48;;
71969;SDS011;59838;52.152;5.436;2023-07-31T13:27:26;1.75;;;1.50;;
71969;SDS011;59838;52.152;5.436;2023-07-31T13:29:53;3.97;;;1.60;;
71969;SDS011;59838;52.152;5.436;2023-07-31T13:32:20;4.38;;;1.58;;
71969;SDS011;59838;52.152;5.436;2023-07-31T13:34:48;2.28;;;1.00;;
71969;SDS011;59838;52.152;5.436;2023-07-31T13:37:16;2.60;;;1.13;;
71969;SDS011;59838;52.152;5.436;2023-07-31T13:39:49;2.55;;;1.27;;
71969;SDS011;59838;52.152;5.436;2023-07-31T13:42:37;2.33;;;1.35;;
71969;SDS011;59838;52.152;5.436;2023-07-31T13:45:19;2.72;;;1.35;;
71969;SDS011;59838;52.152;5.436;2023-07-31T13:47:46;2.53;;;1.30;;
71969;SDS011;59838;52.152;5.436;2023-07-31T13:50:44;2.10;;;1.70;;
71969;SDS011;59838;52.152;5.436;2023-07-31T13:53:17;1.80;;;0.97;;
71969;SDS011;59838;52.152;5.436;2023-07-31T13:55:51;2.22;;;1.35;;
71969;SDS011;59838;52.152;5.436;2023-07-31T14:01:22;0.70;;;0.40;;
71969;SDS011;59838;52.152;5.436;2023-07-31T14:03:52;0.77;;;0.47;;
71969;SDS011;59838;52.152;5.436;2023-07-31T14:06:45;1.93;;;0.57;;
71969;SDS011;59838;52.152;5.436;2023-07-31T14:09:14;1.73;;;0.60;;
71969;SDS011;59838;52.152;5.436;2023-07-31T14:11:46;1.20;;;0.57;;
71969;SDS011;59838;52.152;5.436;2023-07-31T14:17:06;0.93;;;0.60;;
71969;SDS011;59838;52.152;5.436;2023-07-31T14:19:42;1.50;;;0.70;;
71969;SDS011;59838;52.152;5.436;2023-07-31T14:25:26;2.40;;;1.10;;
71969;SDS011;59838;52.152;5.436;2023-07-31T14:27:53;2.60;;;0.90;;
71969;SDS011;59838;52.152;5.436;2023-07-31T14:30:25;3.90;;;1.27;;
71969;SDS011;59838;52.152;5.436;2023-07-31T14:32:55;3.80;;;2.05;;
71969;SDS011;59838;52.152;5.436;2023-07-31T14:35:22;4.88;;;2.50;;
71969;SDS011;59838;52.152;5.436;2023-07-31T14:37:49;2.88;;;2.58;;
71969;SDS011;59838;52.152;5.436;2023-07-31T14:40:16;3.38;;;3.00;;
71969;SDS011;59838;52.152;5.436;2023-07-31T14:42:48;3.97;;;2.97;;
71969;SDS011;59838;52.152;5.436;2023-07-31T14:45:26;5.10;;;3.03;;
71969;SDS011;59838;52.152;5.436;2023-07-31T14:47:56;3.50;;;2.70;;
71969;SDS011;59838;52.152;5.436;2023-07-31T14:50:26;3.60;;;3.30;;
71969;SDS011;59838;52.152;5.436;2023-07-31T14:52:55;4.38;;;3.05;;
71969;SDS011;59838;52.152;5.436;2023-07-31T14:55:23;2.97;;;2.60;;
71969;SDS011;59838;52.152;5.436;2023-07-31T14:57:49;4.60;;;2.80;;
71969;SDS011;59838;52.152;5.436;2023-07-31T15:00:16;4.35;;;2.53;;
71969;SDS011;59838;52.152;5.436;2023-07-31T15:02:44;3.67;;;2.55;;
71969;SDS011;59838;52.152;5.436;2023-07-31T15:05:29;3.85;;;2.15;;
71969;SDS011;59838;52.152;5.436;2023-07-31T15:07:55;3.15;;;2.42;;
71969;SDS011;59838;52.152;5.436;2023-07-31T15:10:22;2.43;;;2.13;;
71969;SDS011;59838;52.152;5.436;2023-07-31T15:12:51;2.67;;;1.55;;
71969;SDS011;59838;52.152;5.436;2023-07-31T15:15:21;2.00;;;1.48;;
71969;SDS011;59838;52.152;5.436;2023-07-31T15:17:49;2.47;;;1.60;;
71969;SDS011;59838;52.152;5.436;2023-07-31T15:20:16;2.35;;;1.63;;
71969;SDS011;59838;52.152;5.436;2023-07-31T15:22:43;4.10;;;1.50;;
71969;SDS011;59838;52.152;5.436;2023-07-31T15:25:10;2.80;;;1.67;;
71969;SDS011;59838;52.152;5.436;2023-07-31T15:27:36;2.38;;;1.70;;
71969;SDS011;59838;52.152;5.436;2023-07-31T15:30:03;1.80;;;1.58;;
71969;SDS011;59838;52.152;5.436;2023-07-31T15:32:31;3.17;;;2.28;;
71969;SDS011;59838;52.152;5.436;2023-07-31T15:34:59;2.73;;;1.67;;